createdAt,value
2023-01-22T00:00:08.984Z,37.97
2023-01-22T00:02:38.624Z,36.45
2023-01-22T00:05:05.805Z,35.78
2023-01-22T00:07:32.797Z,35.95
2023-01-22T00:10:02.238Z,35.13
2023-01-22T00:12:29.006Z,35.15
2023-01-22T00:14:55.717Z,34.92
2023-01-22T00:17:22.472Z,34.60
2023-01-22T00:19:49.228Z,38.78
2023-01-22T00:22:16.179Z,97.40
2023-01-22T00:24:43.506Z,89.57
2023-01-22T00:27:10.472Z,89.22
2023-01-22T00:29:37.197Z,78.63
2023-01-22T00:32:04.229Z,75.72
2023-01-22T00:34:31.264Z,70.72
2023-01-22T00:36:58.216Z,67.93
2023-01-22T00:39:25.197Z,61.28
2023-01-22T00:41:52.185Z,60.90
2023-01-22T00:44:19.216Z,56.75
2023-01-22T00:46:45.941Z,55.92
2023-01-22T00:49:12.882Z,51.22
2023-01-22T00:51:39.814Z,51.33
2023-01-22T00:54:07.039Z,50.47
2023-01-22T00:56:34.058Z,48.28
2023-01-22T00:59:00.822Z,45.95
2023-01-22T01:01:27.520Z,45.17
2023-01-22T01:03:54.347Z,43.83
2023-01-22T01:06:22.078Z,51.08
2023-01-22T01:08:49.592Z,98.82
2023-01-22T01:11:19.177Z,95.97
2023-01-22T01:13:46.063Z,90.18
2023-01-22T01:16:29.225Z,84.35
2023-01-22T01:19:22.310Z,78.40
2023-01-22T01:21:49.171Z,71.70
2023-01-22T01:24:16.019Z,71.82
2023-01-22T01:26:42.813Z,68.00
2023-01-22T01:29:11.417Z,64.80
2023-01-22T01:31:38.485Z,62.78
2023-01-22T01:34:05.441Z,61.70
2023-01-22T01:36:47.696Z,56.80
2023-01-22T01:39:16.046Z,57.03
2023-01-22T01:41:42.832Z,53.58
2023-01-22T01:44:18.619Z,51.22
2023-01-22T01:46:53.107Z,52.95
2023-01-22T01:49:25.648Z,46.67
2023-01-22T01:51:58.429Z,47.25
2023-01-22T01:54:26.000Z,48.13
2023-01-22T01:56:57.554Z,44.85
2023-01-22T01:59:24.413Z,44.25
2023-01-22T02:01:54.832Z,43.45
2023-01-22T02:04:22.654Z,40.25
2023-01-22T02:06:49.476Z,42.38
2023-01-22T02:09:16.326Z,40.95
2023-01-22T02:11:43.548Z,38.90
2023-01-22T02:14:17.056Z,38.53
2023-01-22T02:16:44.044Z,38.53
2023-01-22T02:19:10.848Z,38.63
2023-01-22T02:21:43.009Z,37.40
2023-01-22T02:24:15.116Z,35.10
2023-01-22T02:26:43.480Z,34.88
2023-01-22T02:29:11.947Z,37.28
2023-01-22T02:31:40.306Z,35.25
2023-01-22T02:34:08.425Z,34.63
2023-01-22T02:36:37.002Z,31.63
2023-01-22T02:39:04.372Z,33.58
2023-01-22T02:41:31.349Z,34.28
2023-01-22T02:43:58.093Z,31.95
2023-01-22T02:46:25.982Z,32.53
2023-01-22T02:48:52.835Z,30.33
2023-01-22T02:51:19.841Z,29.33
2023-01-22T02:53:46.574Z,30.33
2023-01-22T02:56:13.295Z,28.95
2023-01-22T02:58:40.156Z,27.95
2023-01-22T03:01:25.105Z,27.58
2023-01-22T03:03:57.972Z,26.15
2023-01-22T03:06:26.876Z,27.60
2023-01-22T03:08:59.123Z,24.55
2023-01-22T03:11:28.614Z,25.30
2023-01-22T03:14:15.300Z,25.52
2023-01-22T03:17:01.702Z,26.17
2023-01-22T03:19:47.609Z,23.52
2023-01-22T03:22:15.733Z,24.00
2023-01-22T03:24:43.320Z,23.80
2023-01-22T03:27:11.316Z,22.30
2023-01-22T03:29:38.401Z,23.10
2023-01-22T03:32:06.255Z,22.65
2023-01-22T03:34:33.248Z,22.40
2023-01-22T03:37:00.106Z,22.80
2023-01-22T03:39:27.433Z,21.85
2023-01-22T03:41:54.234Z,21.70
2023-01-22T03:44:21.078Z,20.95
2023-01-22T03:46:47.893Z,21.83
2023-01-22T03:49:14.832Z,21.25
2023-01-22T03:51:43.472Z,20.67
2023-01-22T03:54:14.260Z,21.05
2023-01-22T03:56:41.995Z,20.10
2023-01-22T03:59:09.889Z,20.45
2023-01-22T04:01:37.066Z,21.17
2023-01-22T04:04:04.158Z,19.63
2023-01-22T04:06:30.936Z,18.13
2023-01-22T04:08:57.681Z,19.05
2023-01-22T04:11:24.456Z,19.25
2023-01-22T04:13:51.643Z,18.98
2023-01-22T04:16:18.415Z,18.35
2023-01-22T04:18:45.260Z,18.23
2023-01-22T04:21:12.083Z,18.85
2023-01-22T04:23:38.799Z,17.23
2023-01-22T04:26:05.598Z,18.58
2023-01-22T04:28:32.354Z,17.52
2023-01-22T04:30:59.789Z,17.75
2023-01-22T04:33:26.699Z,17.90
2023-01-22T04:35:54.779Z,16.88
2023-01-22T04:38:21.676Z,16.42
2023-01-22T04:40:48.575Z,17.10
2023-01-22T04:43:15.307Z,16.65
2023-01-22T04:45:42.125Z,17.05
2023-01-22T04:48:09.380Z,15.60
2023-01-22T04:50:36.133Z,16.60
2023-01-22T04:53:03.560Z,15.40
2023-01-22T04:55:30.442Z,16.30
2023-01-22T04:57:58.744Z,16.80
2023-01-22T05:00:26.779Z,15.48
2023-01-22T05:03:01.286Z,14.35
2023-01-22T05:05:28.815Z,14.70
2023-01-22T05:07:55.935Z,14.20
2023-01-22T05:10:23.034Z,15.68
2023-01-22T05:12:50.412Z,14.23
2023-01-22T05:15:24.493Z,14.70
2023-01-22T05:17:52.921Z,14.55
2023-01-22T05:20:21.064Z,14.40
2023-01-22T05:22:48.223Z,14.98
2023-01-22T05:25:15.120Z,14.00
2023-01-22T05:27:41.963Z,14.13
2023-01-22T05:30:10.071Z,14.20
2023-01-22T05:32:37.104Z,14.00
2023-01-22T05:35:05.919Z,13.45
2023-01-22T05:37:34.459Z,12.77
2023-01-22T05:40:01.849Z,13.25
2023-01-22T05:42:28.593Z,13.73
2023-01-22T05:44:55.314Z,13.63
2023-01-22T05:47:22.048Z,13.05
2023-01-22T05:49:48.773Z,12.70
2023-01-22T05:52:15.562Z,12.40
2023-01-22T05:54:42.267Z,12.38
2023-01-22T05:57:09.007Z,12.05
2023-01-22T05:59:35.778Z,11.73
2023-01-22T06:02:02.815Z,11.43
2023-01-22T06:04:29.620Z,11.50
2023-01-22T06:06:56.390Z,11.00
2023-01-22T06:09:23.370Z,11.40
2023-01-22T06:11:50.305Z,10.45
2023-01-22T06:14:17.141Z,10.85
2023-01-22T06:16:43.982Z,10.40
2023-01-22T06:19:11.228Z,10.98
2023-01-22T06:21:37.949Z,10.38
2023-01-22T06:24:04.896Z,9.98
2023-01-22T06:26:31.891Z,10.23
2023-01-22T06:28:58.718Z,10.80
2023-01-22T06:31:25.545Z,10.65
2023-01-22T06:33:53.509Z,10.13
2023-01-22T06:36:20.261Z,9.63
2023-01-22T06:38:47.016Z,9.07
2023-01-22T06:41:13.749Z,9.88
2023-01-22T06:43:40.507Z,9.68
2023-01-22T06:46:07.327Z,8.55
2023-01-22T06:48:34.133Z,9.90
2023-01-22T06:51:01.473Z,9.32
2023-01-22T06:53:28.681Z,8.18
2023-01-22T06:55:55.557Z,8.32
2023-01-22T06:58:22.359Z,8.13
2023-01-22T07:00:49.066Z,8.20
2023-01-22T07:03:15.850Z,8.70
2023-01-22T07:05:42.746Z,8.60
2023-01-22T07:10:42.070Z,8.45
2023-01-22T07:13:10.334Z,7.85
2023-01-22T07:15:37.366Z,8.02
2023-01-22T07:18:04.270Z,7.75
2023-01-22T07:20:31.344Z,7.88
2023-01-22T07:23:00.245Z,7.65
2023-01-22T07:25:27.919Z,7.68
2023-01-22T07:28:05.690Z,7.18
2023-01-22T07:30:32.715Z,6.75
2023-01-22T07:33:00.605Z,7.38
2023-01-22T07:35:28.093Z,7.40
2023-01-22T07:37:56.311Z,7.07
2023-01-22T07:40:24.260Z,6.57
2023-01-22T07:42:51.877Z,6.78
2023-01-22T07:45:19.375Z,6.57
2023-01-22T07:47:56.552Z,6.30
2023-01-22T07:50:31.291Z,6.38
2023-01-22T07:53:00.560Z,6.80
2023-01-22T07:55:27.540Z,6.10
2023-01-22T07:58:03.577Z,6.35
2023-01-22T08:00:31.761Z,6.07
2023-01-22T08:02:58.682Z,6.63
2023-01-22T08:05:25.551Z,5.75
2023-01-22T08:07:52.473Z,5.97
2023-01-22T08:10:20.172Z,5.90
2023-01-22T08:12:47.447Z,5.95
2023-01-22T08:15:15.094Z,5.68
2023-01-22T08:17:42.453Z,6.03
2023-01-22T08:20:10.904Z,6.00
2023-01-22T08:22:38.107Z,5.90
2023-01-22T08:25:05.291Z,5.07
2023-01-22T08:27:34.992Z,5.20
2023-01-22T08:32:30.031Z,5.07
2023-01-22T08:34:57.154Z,5.57
2023-01-22T08:37:24.616Z,5.93
2023-01-22T08:39:51.487Z,5.43
2023-01-22T08:42:18.405Z,5.40
2023-01-22T08:44:45.218Z,5.43
2023-01-22T08:47:12.052Z,5.50
2023-01-22T08:49:38.935Z,5.13
2023-01-22T08:52:06.144Z,5.40
2023-01-22T08:54:32.957Z,4.88
2023-01-22T08:57:00.133Z,4.57
2023-01-22T08:59:28.034Z,5.07
2023-01-22T09:02:00.993Z,4.70
2023-01-22T09:04:28.524Z,5.10
2023-01-22T09:06:55.362Z,4.35
2023-01-22T09:09:22.229Z,5.47
2023-01-22T09:11:49.247Z,4.72
2023-01-22T09:14:16.083Z,4.68
2023-01-22T09:16:42.954Z,4.63
2023-01-22T09:19:10.825Z,4.65
2023-01-22T09:21:37.684Z,4.60
2023-01-22T09:24:05.329Z,4.50
2023-01-22T09:26:32.870Z,4.68
2023-01-22T09:29:05.785Z,4.70
2023-01-22T09:31:36.855Z,4.47
2023-01-22T09:34:04.556Z,4.40
2023-01-22T09:36:31.462Z,4.70
2023-01-22T09:38:58.461Z,4.25
2023-01-22T09:47:17.546Z,3.90
2023-01-22T09:49:58.777Z,4.10
2023-01-22T09:52:30.939Z,3.92
2023-01-22T09:54:57.849Z,9.75
2023-01-22T09:57:31.721Z,35.53
2023-01-22T09:59:59.346Z,34.47
2023-01-22T10:02:36.387Z,30.02
2023-01-22T10:05:27.929Z,28.40
2023-01-22T10:08:01.178Z,26.23
2023-01-22T10:10:28.848Z,23.52
2023-01-22T10:13:20.808Z,21.83
2023-01-22T10:15:53.455Z,19.13
2023-01-22T10:18:43.250Z,18.33
2023-01-22T10:21:25.361Z,16.42
2023-01-22T10:23:52.526Z,14.70
2023-01-22T10:26:25.325Z,13.93
2023-01-22T10:28:55.589Z,12.82
2023-01-22T10:31:34.588Z,12.35
2023-01-22T10:34:13.741Z,12.00
2023-01-22T10:36:40.833Z,11.07
2023-01-22T10:39:13.403Z,10.63
2023-01-22T10:41:41.399Z,10.38
2023-01-22T10:44:25.321Z,30.38
2023-01-22T10:46:53.767Z,38.97
2023-01-22T10:49:21.903Z,43.17
2023-01-22T10:51:59.490Z,44.17
2023-01-22T10:54:43.757Z,41.13
2023-01-22T10:57:36.792Z,39.70
2023-01-22T11:00:16.375Z,36.25
2023-01-22T11:02:47.639Z,32.88
2023-01-22T11:05:19.598Z,31.63
2023-01-22T11:07:48.794Z,27.90
2023-01-22T11:10:49.554Z,26.00
2023-01-22T11:13:35.321Z,26.55
2023-01-22T11:16:06.734Z,24.20
2023-01-22T11:18:38.873Z,22.42
2023-01-22T11:21:17.242Z,21.75
2023-01-22T11:24:01.829Z,21.10
2023-01-22T11:26:49.632Z,19.83
2023-01-22T11:29:35.115Z,19.67
2023-01-22T11:32:21.867Z,18.70
2023-01-22T11:35:17.786Z,17.23
2023-01-22T11:37:53.454Z,17.83
2023-01-22T11:40:31.789Z,16.42
2023-01-22T11:43:08.308Z,16.30
2023-01-22T11:45:41.792Z,16.52
2023-01-22T11:48:23.916Z,14.57
2023-01-22T11:51:16.508Z,14.75
2023-01-22T11:53:48.780Z,13.68
2023-01-22T11:56:43.904Z,13.50
2023-01-22T11:59:16.234Z,13.48
2023-01-22T12:02:19.491Z,13.77
2023-01-22T12:05:08.537Z,12.40
2023-01-22T12:07:56.257Z,11.45
2023-01-22T12:10:28.910Z,9.30
2023-01-22T12:12:59.136Z,8.68
2023-01-22T12:15:29.041Z,9.82
2023-01-22T12:18:11.013Z,10.57
2023-01-22T12:20:46.631Z,10.20
2023-01-22T12:23:33.822Z,10.85
2023-01-22T12:26:25.653Z,11.82
2023-01-22T12:29:18.663Z,11.07
2023-01-22T12:32:12.267Z,10.85
2023-01-22T12:34:54.035Z,11.07
2023-01-22T12:37:25.177Z,10.98
2023-01-22T12:40:21.446Z,10.73
2023-01-22T12:42:59.342Z,10.38
2023-01-22T12:45:38.137Z,10.73
2023-01-22T12:48:04.901Z,9.00
2023-01-22T12:50:31.733Z,9.52
2023-01-22T12:53:01.539Z,9.00
2023-01-22T12:55:43.987Z,8.70
2023-01-22T12:58:38.177Z,8.88
2023-01-22T13:01:11.407Z,8.00
2023-01-22T13:03:42.089Z,7.82
2023-01-22T13:06:35.899Z,7.65
2023-01-22T13:09:05.349Z,8.07
2023-01-22T13:11:36.057Z,7.53
2023-01-22T13:14:14.719Z,8.10
2023-01-22T13:16:59.805Z,8.15
2023-01-22T13:19:29.521Z,7.80
2023-01-22T13:21:59.946Z,7.25
2023-01-22T13:24:26.668Z,7.78
2023-01-22T13:26:57.120Z,7.22
2023-01-22T13:29:27.169Z,6.93
2023-01-22T13:32:00.107Z,7.72
2023-01-22T13:34:27.915Z,8.25
2023-01-22T13:36:55.536Z,7.05
2023-01-22T13:39:29.857Z,6.78
2023-01-22T13:41:59.249Z,36.75
2023-01-22T13:44:36.555Z,45.95
2023-01-22T13:47:03.574Z,42.88
2023-01-22T13:49:32.544Z,37.10
2023-01-22T13:52:06.924Z,32.45
2023-01-22T13:54:36.636Z,27.42
2023-01-22T13:57:05.404Z,24.95
2023-01-22T13:59:35.164Z,22.35
2023-01-22T14:02:20.108Z,20.33
2023-01-22T14:04:47.541Z,19.30
2023-01-22T14:07:32.345Z,16.23
2023-01-22T14:10:18.043Z,16.25
2023-01-22T14:12:45.052Z,14.65
2023-01-22T14:15:16.822Z,14.13
2023-01-22T14:17:44.298Z,13.30
2023-01-22T14:20:12.008Z,13.68
2023-01-22T14:22:38.847Z,12.30
2023-01-22T14:25:06.346Z,11.57
2023-01-22T14:27:44.732Z,11.60
2023-01-22T14:30:14.883Z,11.60
2023-01-22T14:32:42.756Z,11.57
2023-01-22T14:35:17.110Z,11.13
2023-01-22T14:37:43.965Z,11.00
2023-01-22T14:40:12.591Z,11.10
2023-01-22T14:42:39.524Z,9.67
2023-01-22T14:45:07.232Z,10.07
2023-01-22T14:47:34.743Z,9.85
2023-01-22T14:50:02.344Z,9.88
2023-01-22T14:52:29.157Z,9.73
2023-01-22T14:54:56.102Z,17.95
2023-01-22T14:57:24.253Z,35.30
2023-01-22T14:59:51.351Z,53.90
2023-01-22T15:02:18.767Z,48.45
2023-01-22T15:04:45.805Z,50.00
2023-01-22T15:07:12.632Z,47.15
2023-01-22T15:09:39.966Z,43.72
2023-01-22T15:12:07.555Z,39.33
2023-01-22T15:14:34.524Z,34.90
2023-01-22T15:17:01.412Z,35.47
2023-01-22T15:19:32.145Z,32.63
2023-01-22T15:22:03.609Z,47.83
2023-01-22T15:24:30.489Z,54.22
2023-01-22T15:26:57.422Z,62.72
2023-01-22T15:29:24.296Z,65.38
2023-01-22T15:31:51.173Z,65.53
2023-01-22T15:34:18.226Z,57.17
2023-01-22T15:36:45.703Z,54.58
2023-01-22T15:39:12.574Z,53.28
2023-01-22T15:41:39.513Z,49.60
2023-01-22T15:44:06.639Z,46.83
2023-01-22T15:46:36.527Z,44.60
2023-01-22T15:49:05.117Z,43.33
2023-01-22T15:51:32.430Z,40.05
2023-01-22T15:54:00.985Z,39.17
2023-01-22T15:56:30.719Z,37.78
2023-01-22T15:58:58.158Z,36.83
2023-01-22T16:01:26.256Z,34.70
2023-01-22T16:03:53.774Z,35.22
2023-01-22T16:06:22.758Z,34.28
2023-01-22T16:08:50.647Z,34.00
2023-01-22T16:11:18.053Z,33.65
2023-01-22T16:13:45.090Z,31.55
2023-01-22T16:16:23.746Z,30.90
2023-01-22T16:18:50.725Z,29.83
2023-01-22T16:21:18.616Z,27.90
2023-01-22T16:23:46.421Z,29.17
2023-01-22T16:26:18.686Z,29.65
2023-01-22T16:28:48.056Z,28.67
2023-01-22T16:31:17.358Z,29.45
2023-01-22T16:33:45.938Z,27.58
2023-01-22T16:36:15.736Z,27.48
2023-01-22T16:38:42.796Z,27.13
2023-01-22T16:41:24.351Z,27.23
2023-01-22T16:44:01.643Z,27.75
2023-01-22T16:46:31.566Z,45.83
2023-01-22T16:49:01.272Z,83.90
2023-01-22T16:51:33.230Z,81.90
2023-01-22T16:53:59.962Z,79.43
2023-01-22T16:56:26.726Z,71.55
2023-01-22T16:58:53.471Z,65.38
2023-01-22T17:01:21.008Z,56.53
2023-01-22T17:03:47.734Z,54.97
2023-01-22T17:06:25.320Z,49.97
2023-01-22T17:08:52.901Z,47.28
2023-01-22T17:11:19.863Z,43.05
2023-01-22T17:13:47.053Z,41.80
2023-01-22T17:16:14.053Z,41.20
2023-01-22T17:18:40.881Z,38.85
2023-01-22T17:21:08.997Z,37.38
2023-01-22T17:23:36.074Z,35.40
2023-01-22T17:26:10.830Z,35.97
2023-01-22T17:28:39.453Z,34.42
2023-01-22T17:31:10.502Z,33.40
2023-01-22T17:33:37.920Z,33.00
2023-01-22T17:36:05.945Z,32.17
2023-01-22T17:38:37.431Z,30.88
2023-01-22T17:41:06.804Z,30.40
2023-01-22T17:43:34.869Z,30.35
2023-01-22T17:46:02.522Z,29.55
2023-01-22T17:48:32.748Z,29.98
2023-01-22T17:51:07.698Z,29.75
2023-01-22T17:53:39.704Z,27.27
2023-01-22T17:56:12.306Z,27.50
2023-01-22T17:58:42.295Z,25.15
2023-01-22T18:01:10.888Z,28.08
2023-01-22T18:03:38.148Z,26.90
2023-01-22T18:06:05.716Z,27.42
2023-01-22T18:08:33.608Z,27.25
2023-01-22T18:11:07.716Z,24.80
2023-01-22T18:13:35.563Z,26.25
2023-01-22T18:16:02.960Z,24.45
2023-01-22T18:18:29.829Z,23.48
2023-01-22T18:20:56.820Z,24.30
2023-01-22T18:23:24.086Z,24.02
2023-01-22T18:25:54.339Z,22.45
2023-01-22T18:28:21.153Z,22.80
2023-01-22T18:30:48.068Z,21.75
2023-01-22T18:33:18.124Z,23.20
2023-01-22T18:35:46.728Z,49.40
2023-01-22T18:38:13.488Z,68.28
2023-01-22T18:40:40.575Z,85.35
2023-01-22T18:43:10.031Z,90.68
2023-01-22T18:45:37.677Z,84.43
2023-01-22T18:48:04.786Z,72.18
2023-01-22T18:50:31.547Z,67.63
2023-01-22T18:53:00.699Z,57.53
2023-01-22T18:55:28.079Z,56.40
2023-01-22T18:57:58.411Z,52.58
2023-01-22T19:00:25.121Z,50.63
2023-01-22T19:02:56.039Z,52.25
2023-01-22T19:05:27.205Z,46.80
2023-01-22T19:07:54.117Z,44.92
2023-01-22T19:10:23.060Z,48.65
2023-01-22T19:12:50.143Z,41.15
2023-01-22T19:15:17.273Z,40.13
2023-01-22T19:17:44.524Z,37.92
2023-01-22T19:20:13.112Z,37.15
2023-01-22T19:22:39.859Z,36.60
2023-01-22T19:25:07.282Z,35.80
2023-01-22T19:27:34.170Z,34.95
2023-01-22T19:30:01.034Z,34.38
2023-01-22T19:32:30.270Z,34.30
2023-01-22T19:34:57.871Z,34.05
2023-01-22T19:37:25.196Z,32.97
2023-01-22T19:39:52.094Z,33.20
2023-01-22T19:42:18.898Z,30.67
2023-01-22T19:44:45.964Z,31.10
2023-01-22T19:47:13.823Z,30.13
2023-01-22T19:49:40.722Z,31.10
2023-01-22T19:52:08.792Z,30.63
2023-01-22T19:54:40.483Z,30.30
2023-01-22T19:57:07.406Z,29.67
2023-01-22T19:59:34.225Z,28.55
2023-01-22T20:02:01.091Z,29.13
2023-01-22T20:04:31.712Z,27.33
2023-01-22T20:07:05.078Z,27.65
2023-01-22T20:09:33.124Z,28.42
2023-01-22T20:12:00.495Z,25.67
2023-01-22T20:14:32.969Z,26.25
2023-01-22T20:17:01.229Z,26.05
2023-01-22T20:19:29.154Z,25.58
2023-01-22T20:21:56.529Z,25.05
2023-01-22T20:24:23.415Z,24.33
2023-01-22T20:26:54.260Z,49.30
2023-01-22T20:29:21.171Z,70.65
2023-01-22T20:31:51.657Z,77.18
2023-01-22T20:34:18.519Z,77.75
2023-01-22T20:36:45.329Z,69.72
2023-01-22T20:39:12.823Z,79.32
2023-01-22T20:41:39.688Z,113.25
2023-01-22T20:44:06.753Z,110.55
2023-01-22T20:46:35.976Z,106.65
2023-01-22T20:49:03.019Z,98.97
2023-01-22T20:51:29.885Z,90.55
2023-01-22T20:53:57.852Z,82.80
2023-01-22T20:56:28.825Z,76.10
2023-01-22T20:59:04.017Z,70.28
2023-01-22T21:01:31.330Z,64.25
2023-01-22T21:03:58.917Z,61.22
2023-01-22T21:06:28.075Z,58.35
2023-01-22T21:08:58.843Z,54.00
2023-01-22T21:11:28.318Z,53.63
2023-01-22T21:13:56.537Z,50.10
2023-01-22T21:16:26.456Z,49.75
2023-01-22T21:19:01.635Z,49.13
2023-01-22T21:21:29.496Z,47.38
2023-01-22T21:23:56.869Z,44.67
2023-01-22T21:26:26.358Z,43.25
2023-01-22T21:29:01.184Z,42.17
2023-01-22T21:31:28.446Z,41.42
2023-01-22T21:34:02.910Z,46.55
2023-01-22T21:36:35.483Z,60.05
2023-01-22T21:39:03.473Z,76.55
2023-01-22T21:41:30.245Z,73.88
2023-01-22T21:44:15.617Z,72.93
2023-01-22T21:46:43.452Z,65.45
2023-01-22T21:49:19.869Z,58.38
2023-01-22T21:51:55.024Z,53.42
2023-01-22T21:54:27.621Z,53.55
2023-01-22T21:56:55.233Z,51.90
2023-01-22T21:59:22.139Z,47.67
2023-01-22T22:01:54.442Z,49.17
2023-01-22T22:04:22.827Z,45.97
2023-01-22T22:06:49.579Z,44.05
2023-01-22T22:09:19.714Z,42.13
2023-01-22T22:11:46.499Z,41.90
2023-01-22T22:14:15.839Z,39.25
2023-01-22T22:16:44.223Z,41.20
2023-01-22T22:19:13.000Z,41.30
2023-01-22T22:21:40.135Z,39.07
2023-01-22T22:24:07.733Z,39.28
2023-01-22T22:26:35.138Z,40.00
2023-01-22T22:29:02.210Z,39.15
2023-01-22T22:31:29.446Z,36.17
2023-01-22T22:33:56.577Z,35.92
2023-01-22T22:36:28.086Z,35.13
2023-01-22T22:38:55.227Z,31.98
2023-01-22T22:41:24.389Z,31.88
2023-01-22T22:43:52.521Z,29.35
2023-01-22T22:46:31.223Z,29.67
2023-01-22T22:49:00.253Z,29.73
2023-01-22T22:51:37.010Z,30.20
2023-01-22T22:54:07.609Z,29.17
2023-01-22T22:56:35.015Z,29.10
2023-01-22T22:59:02.465Z,28.85
2023-01-22T23:01:31.508Z,27.38
2023-01-22T23:03:58.724Z,27.45
2023-01-22T23:06:27.858Z,26.60
2023-01-22T23:08:55.978Z,27.17
2023-01-22T23:11:26.568Z,31.75
2023-01-22T23:13:53.615Z,34.83
2023-01-22T23:16:22.441Z,38.53
2023-01-22T23:18:51.474Z,41.30
2023-01-22T23:21:22.243Z,40.33
2023-01-22T23:23:50.162Z,38.75
2023-01-22T23:26:22.785Z,37.15
2023-01-22T23:28:52.004Z,36.78
2023-01-22T23:31:18.957Z,34.55
2023-01-22T23:33:45.976Z,30.60
2023-01-22T23:36:14.675Z,28.80
2023-01-22T23:38:42.507Z,30.37
2023-01-22T23:41:11.698Z,28.65
2023-01-22T23:43:38.597Z,25.75
2023-01-22T23:46:09.952Z,26.23
2023-01-22T23:48:37.098Z,40.65
2023-01-22T23:51:04.504Z,44.63
2023-01-22T23:53:31.278Z,60.13
2023-01-22T23:55:59.461Z,63.90
2023-01-22T23:58:26.973Z,60.05
